createdAt,value
2018-01-26T00:00:37.956Z,19.13
2018-01-26T00:03:09.071Z,19.13
2018-01-26T00:05:40.177Z,19.57
2018-01-26T00:08:11.298Z,20.17
2018-01-26T00:10:42.336Z,21.67
2018-01-26T00:13:13.579Z,21.70
2018-01-26T00:15:44.627Z,20.50
2018-01-26T00:18:15.726Z,20.33
2018-01-26T00:20:46.791Z,20.87
2018-01-26T00:23:17.915Z,21.33
2018-01-26T00:25:48.985Z,20.37
2018-01-26T00:28:20.080Z,21.10
2018-01-26T00:30:51.149Z,19.60
2018-01-26T00:33:22.272Z,21.10
2018-01-26T00:35:53.329Z,20.13
2018-01-26T00:38:24.474Z,20.00
2018-01-26T00:40:55.562Z,22.03
2018-01-26T00:43:26.707Z,21.40
2018-01-26T00:45:57.838Z,18.70
2018-01-26T00:48:28.921Z,20.10
2018-01-26T00:51:00.074Z,20.43
2018-01-26T00:53:31.131Z,20.57
2018-01-26T00:56:02.260Z,19.20
2018-01-26T00:58:33.507Z,20.20
2018-01-26T01:01:04.583Z,20.93
2018-01-26T01:03:42.689Z,20.13
2018-01-26T01:06:13.764Z,20.43
2018-01-26T01:08:44.923Z,20.50
2018-01-26T01:11:15.981Z,19.93
2018-01-26T01:13:47.092Z,19.73
2018-01-26T01:16:18.155Z,20.20
2018-01-26T01:18:49.251Z,19.90
2018-01-26T01:21:20.366Z,20.43
2018-01-26T01:23:51.472Z,20.43
2018-01-26T01:26:22.523Z,19.17
2018-01-26T01:28:53.723Z,20.67
2018-01-26T01:31:24.816Z,19.87
2018-01-26T01:33:55.951Z,21.70
2018-01-26T01:36:27.777Z,20.13
2018-01-26T01:38:58.878Z,20.80
2018-01-26T01:41:30.941Z,20.40
2018-01-26T01:44:02.086Z,19.73
2018-01-26T01:46:33.137Z,19.50
2018-01-26T01:49:15.396Z,21.87
2018-01-26T01:51:46.533Z,21.40
2018-01-26T01:54:17.664Z,21.53
2018-01-26T01:56:48.756Z,20.67
2018-01-26T01:59:19.907Z,20.87
2018-01-26T02:01:50.991Z,19.93
2018-01-26T02:04:22.115Z,21.50
2018-01-26T02:06:53.167Z,21.87
2018-01-26T02:09:24.355Z,22.07
2018-01-26T02:11:55.434Z,21.97
2018-01-26T02:14:26.571Z,23.00
2018-01-26T02:16:57.590Z,21.37
2018-01-26T02:19:28.716Z,22.77
2018-01-26T02:21:59.823Z,24.20
2018-01-26T02:24:30.868Z,22.00
2018-01-26T02:27:02.012Z,24.17
2018-01-26T02:29:33.056Z,23.40
2018-01-26T02:32:04.164Z,21.07
2018-01-26T02:34:35.408Z,22.40
2018-01-26T02:37:06.472Z,24.30
2018-01-26T02:39:37.516Z,21.90
2018-01-26T02:42:08.611Z,23.00
2018-01-26T02:44:39.713Z,21.63
2018-01-26T02:47:10.804Z,22.57
2018-01-26T02:49:41.924Z,22.60
2018-01-26T02:52:13.111Z,23.00
2018-01-26T02:54:44.258Z,24.60
2018-01-26T02:57:15.328Z,21.87
2018-01-26T02:59:46.440Z,21.77
2018-01-26T03:02:17.529Z,22.27
2018-01-26T03:04:48.626Z,20.90
2018-01-26T03:07:25.777Z,22.30
2018-01-26T03:09:57.101Z,20.93
2018-01-26T03:12:29.022Z,22.47
2018-01-26T03:15:00.096Z,22.60
2018-01-26T03:17:31.188Z,23.57
2018-01-26T03:20:02.278Z,22.50
2018-01-26T03:22:33.522Z,21.97
2018-01-26T03:25:04.614Z,22.83
2018-01-26T03:27:36.471Z,24.23
2018-01-26T03:30:07.572Z,22.60
2018-01-26T03:32:38.697Z,24.53
2018-01-26T03:35:09.749Z,23.07
2018-01-26T03:37:40.843Z,21.30
2018-01-26T03:40:11.962Z,22.50
2018-01-26T03:42:43.708Z,25.43
2018-01-26T03:45:14.841Z,22.27
2018-01-26T03:47:45.930Z,24.27
2018-01-26T03:50:17.128Z,21.77
2018-01-26T03:52:48.175Z,22.47
2018-01-26T03:55:19.349Z,24.03
2018-01-26T03:57:50.429Z,26.87
2018-01-26T04:00:21.549Z,23.67
2018-01-26T04:02:52.602Z,26.80
2018-01-26T04:05:23.741Z,28.27
2018-01-26T04:07:54.875Z,27.07
2018-01-26T04:10:26.058Z,27.00
2018-01-26T04:12:57.157Z,26.83
2018-01-26T04:15:28.294Z,32.13
2018-01-26T04:17:59.441Z,29.40
2018-01-26T04:20:30.504Z,26.57
2018-01-26T04:23:01.650Z,28.87
2018-01-26T04:25:32.700Z,29.63
2018-01-26T04:28:03.780Z,28.17
2018-01-26T04:30:34.874Z,29.60
2018-01-26T04:33:06.090Z,32.00
2018-01-26T04:35:37.173Z,30.37
2018-01-26T04:38:08.312Z,32.63
2018-01-26T04:40:39.349Z,32.20
2018-01-26T04:43:10.485Z,31.43
2018-01-26T04:45:41.578Z,30.37
2018-01-26T04:48:12.678Z,33.53
2018-01-26T04:50:43.877Z,31.07
2018-01-26T04:53:14.968Z,34.63
2018-01-26T04:55:46.127Z,33.27
2018-01-26T04:58:17.239Z,32.00
2018-01-26T05:00:48.297Z,35.63
2018-01-26T05:03:19.382Z,32.10
2018-01-26T05:05:50.458Z,34.20
2018-01-26T05:08:21.931Z,31.97
2018-01-26T05:10:53.184Z,32.93
2018-01-26T05:13:24.239Z,32.03
2018-01-26T05:15:55.265Z,32.83
2018-01-26T05:18:26.334Z,32.20
2018-01-26T05:20:57.444Z,27.77
2018-01-26T05:23:28.525Z,33.40
2018-01-26T05:25:59.857Z,33.07
2018-01-26T05:28:30.936Z,32.07
2018-01-26T05:31:02.023Z,32.73
2018-01-26T05:33:33.146Z,33.80
2018-01-26T05:36:04.257Z,37.90
2018-01-26T05:38:35.358Z,35.50
2018-01-26T05:41:06.405Z,36.03
2018-01-26T05:43:37.466Z,34.60
2018-01-26T05:46:08.569Z,35.17
2018-01-26T05:48:40.258Z,35.67
2018-01-26T05:51:11.340Z,41.13
2018-01-26T05:53:42.421Z,34.93
2018-01-26T05:56:14.431Z,38.67
2018-01-26T05:58:45.498Z,40.00
2018-01-26T06:01:16.637Z,38.60
2018-01-26T06:03:47.688Z,37.40
2018-01-26T06:06:19.413Z,35.13
2018-01-26T06:08:50.501Z,33.13
2018-01-26T06:11:21.568Z,35.60
2018-01-26T06:13:52.628Z,37.07
2018-01-26T06:16:23.747Z,36.07
2018-01-26T06:18:54.839Z,37.30
2018-01-26T06:21:25.944Z,35.30
2018-01-26T06:23:56.996Z,40.13
2018-01-26T06:26:28.095Z,33.87
2018-01-26T06:28:59.152Z,34.93
2018-01-26T06:31:30.277Z,33.13
2018-01-26T06:34:01.333Z,34.03
2018-01-26T06:36:32.468Z,35.50
2018-01-26T06:39:03.676Z,39.03
2018-01-26T06:41:34.760Z,32.87
2018-01-26T06:44:05.847Z,35.97
2018-01-26T06:46:36.934Z,34.17
2018-01-26T06:49:08.057Z,32.37
2018-01-26T06:51:39.244Z,36.67
2018-01-26T06:54:10.340Z,37.73
2018-01-26T06:56:41.467Z,35.97
2018-01-26T06:59:12.550Z,33.30
2018-01-26T07:01:43.725Z,36.20
2018-01-26T07:04:14.766Z,31.73
2018-01-26T07:06:45.911Z,32.03
2018-01-26T07:09:17.030Z,40.07
2018-01-26T07:11:48.138Z,34.17
2018-01-26T07:14:19.249Z,35.40
2018-01-26T07:16:50.354Z,36.00
2018-01-26T07:19:21.594Z,36.43
2018-01-26T07:21:52.824Z,38.60
2018-01-26T07:24:23.980Z,38.07
2018-01-26T07:26:55.100Z,36.07
2018-01-26T07:29:26.214Z,37.53
2018-01-26T07:31:57.242Z,34.47
2018-01-26T07:34:28.397Z,34.93
2018-01-26T07:36:59.546Z,34.10
2018-01-26T07:39:30.700Z,35.07
2018-01-26T07:42:01.772Z,37.57
2018-01-26T07:44:32.860Z,36.93
2018-01-26T07:47:03.934Z,36.83
2018-01-26T07:49:35.137Z,39.87
2018-01-26T07:52:06.183Z,40.57
2018-01-26T07:54:37.349Z,36.73
2018-01-26T07:57:08.412Z,41.70
2018-01-26T07:59:39.581Z,38.90
2018-01-26T08:02:11.025Z,40.63
2018-01-26T08:04:42.163Z,45.73
2018-01-26T08:07:13.272Z,38.93
2018-01-26T08:09:44.440Z,39.40
2018-01-26T08:12:15.533Z,39.70
2018-01-26T08:14:46.629Z,41.00
2018-01-26T08:17:17.733Z,38.50
2018-01-26T08:19:48.834Z,36.97
2018-01-26T08:22:21.474Z,38.63
2018-01-26T08:24:52.587Z,40.83
2018-01-26T08:27:23.689Z,40.77
2018-01-26T08:29:54.804Z,37.37
2018-01-26T08:32:25.949Z,40.30
2018-01-26T08:34:57.076Z,35.83
2018-01-26T08:37:28.232Z,38.97
2018-01-26T08:39:59.359Z,33.47
2018-01-26T08:42:30.433Z,34.17
2018-01-26T08:45:01.506Z,38.00
2018-01-26T08:47:32.587Z,41.63
2018-01-26T08:50:03.764Z,32.63
2018-01-26T08:52:34.838Z,35.43
2018-01-26T08:55:08.981Z,35.20
2018-01-26T08:57:40.088Z,37.13
2018-01-26T09:00:11.320Z,37.53
2018-01-26T09:02:42.420Z,44.20
2018-01-26T09:05:13.517Z,40.40
2018-01-26T09:07:44.618Z,43.10
2018-01-26T09:10:15.790Z,46.73
2018-01-26T09:12:46.868Z,41.43
2018-01-26T09:15:18.211Z,41.93
2018-01-26T09:17:49.276Z,39.30
2018-01-26T09:20:20.345Z,40.67
2018-01-26T09:22:51.470Z,44.73
2018-01-26T09:25:22.662Z,45.47
2018-01-26T09:27:53.789Z,40.93
2018-01-26T09:30:24.922Z,46.30
2018-01-26T09:32:56.032Z,48.87
2018-01-26T09:35:27.181Z,45.13
2018-01-26T09:37:58.302Z,42.47
2018-01-26T09:40:29.463Z,47.03
2018-01-26T09:43:00.594Z,45.33
2018-01-26T09:45:31.737Z,46.67
2018-01-26T09:48:02.890Z,44.60
2018-01-26T09:50:34.090Z,42.37
2018-01-26T09:53:05.159Z,43.67
2018-01-26T09:55:36.341Z,49.50
2018-01-26T09:58:07.444Z,44.93
2018-01-26T10:00:39.147Z,50.20
2018-01-26T10:03:10.194Z,41.87
2018-01-26T10:05:41.344Z,48.60
2018-01-26T10:08:12.440Z,44.50
2018-01-26T10:10:43.533Z,44.90
2018-01-26T10:13:14.651Z,48.63
2018-01-26T10:15:45.777Z,45.87
2018-01-26T10:18:16.881Z,46.70
2018-01-26T10:20:48.008Z,44.53
2018-01-26T10:23:19.098Z,41.90
2018-01-26T10:25:50.176Z,44.30
2018-01-26T10:28:21.267Z,41.13
2018-01-26T10:30:52.402Z,47.37
2018-01-26T10:33:23.656Z,46.80
2018-01-26T10:35:54.766Z,47.40
2018-01-26T10:38:25.791Z,50.93
2018-01-26T10:40:56.933Z,42.47
2018-01-26T10:43:28.082Z,43.30
2018-01-26T10:45:59.225Z,44.50
2018-01-26T10:48:30.278Z,39.57
2018-01-26T10:51:01.381Z,38.47
2018-01-26T10:53:32.466Z,37.77
2018-01-26T10:56:03.621Z,35.73
2018-01-26T10:58:34.710Z,36.57
2018-01-26T11:01:05.741Z,37.37
2018-01-26T11:03:36.850Z,35.83
2018-01-26T11:06:07.995Z,37.47
2018-01-26T11:08:39.049Z,35.33
2018-01-26T11:11:10.209Z,33.80
2018-01-26T11:13:41.255Z,33.33
2018-01-26T11:16:12.393Z,35.73
2018-01-26T11:18:43.476Z,34.67
2018-01-26T11:21:14.637Z,38.87
2018-01-26T11:23:46.207Z,39.33
2018-01-26T11:26:17.394Z,38.13
2018-01-26T11:28:48.430Z,35.47
2018-01-26T11:31:19.606Z,36.87
2018-01-26T11:33:50.795Z,35.27
2018-01-26T11:36:21.849Z,35.83
2018-01-26T11:38:52.992Z,35.13
2018-01-26T11:41:24.146Z,35.73
2018-01-26T11:43:55.244Z,35.23
2018-01-26T11:46:26.267Z,39.37
2018-01-26T11:48:57.461Z,36.43
2018-01-26T11:51:28.486Z,35.63
2018-01-26T11:53:59.592Z,32.83
2018-01-26T11:56:30.644Z,35.73
2018-01-26T11:59:01.735Z,36.83
2018-01-26T12:01:32.796Z,37.73
2018-01-26T12:04:04.192Z,37.93
2018-01-26T12:06:35.312Z,34.80
2018-01-26T12:09:06.442Z,40.70
2018-01-26T12:11:37.524Z,35.47
2018-01-26T12:14:08.625Z,35.40
2018-01-26T12:16:39.696Z,38.77
2018-01-26T12:19:10.836Z,38.97
2018-01-26T12:21:42.110Z,33.97
2018-01-26T12:24:13.246Z,35.10
2018-01-26T12:26:44.286Z,37.53
2018-01-26T12:29:15.478Z,32.80
2018-01-26T12:31:46.557Z,37.13
2018-01-26T12:34:17.670Z,37.10
2018-01-26T12:36:48.795Z,37.23
2018-01-26T12:39:19.913Z,38.03
2018-01-26T12:41:51.091Z,35.10
2018-01-26T12:44:22.171Z,35.17
2018-01-26T12:46:53.289Z,36.33
2018-01-26T12:49:24.372Z,36.53
2018-01-26T12:51:55.516Z,33.50
2018-01-26T12:54:26.589Z,35.87
2018-01-26T12:56:57.644Z,36.50
2018-01-26T12:59:28.782Z,32.30
2018-01-26T13:01:59.854Z,35.10
2018-01-26T13:04:31.556Z,34.97
2018-01-26T13:07:03.381Z,36.63
2018-01-26T13:09:34.452Z,35.63
2018-01-26T13:12:05.966Z,34.37
2018-01-26T13:14:37.067Z,35.50
2018-01-26T13:17:08.164Z,36.33
2018-01-26T13:19:39.307Z,35.37
2018-01-26T13:22:10.484Z,33.00
2018-01-26T13:24:41.596Z,37.43
2018-01-26T13:27:12.667Z,33.27
2018-01-26T13:29:43.844Z,34.53
2018-01-26T13:32:14.885Z,37.97
2018-01-26T13:34:46.087Z,34.30
2018-01-26T13:37:17.134Z,35.47
2018-01-26T13:39:48.303Z,41.70
2018-01-26T13:42:19.459Z,34.40
2018-01-26T13:44:50.534Z,33.60
2018-01-26T13:47:21.642Z,33.90
2018-01-26T13:49:52.690Z,35.00
2018-01-26T13:52:23.821Z,34.00
2018-01-26T13:54:54.889Z,38.60
2018-01-26T13:57:26.061Z,30.00
2018-01-26T13:59:57.152Z,30.40
2018-01-26T14:02:28.305Z,32.27
2018-01-26T14:04:59.452Z,34.63
2018-01-26T14:07:31.149Z,30.47
2018-01-26T14:10:02.423Z,37.27
2018-01-26T14:12:33.454Z,34.47
2018-01-26T14:15:05.294Z,31.07
2018-01-26T14:17:36.404Z,33.23
2018-01-26T14:20:07.564Z,30.90
2018-01-26T14:22:38.617Z,36.90
2018-01-26T14:25:09.750Z,31.63
2018-01-26T14:27:40.841Z,35.80
2018-01-26T14:30:12.112Z,28.17
2018-01-26T14:32:43.201Z,29.60
2018-01-26T14:35:14.296Z,29.63
2018-01-26T14:37:45.365Z,26.90
2018-01-26T14:40:16.525Z,29.50
2018-01-26T14:42:47.626Z,28.63
2018-01-26T14:45:18.792Z,28.03
2018-01-26T14:47:49.884Z,27.97
2018-01-26T14:50:20.997Z,30.77
2018-01-26T14:52:52.132Z,29.67
2018-01-26T14:55:23.288Z,28.73
2018-01-26T14:57:54.385Z,28.00
2018-01-26T15:00:25.508Z,29.80
2018-01-26T15:02:56.593Z,28.10
2018-01-26T15:05:27.754Z,29.87
2018-01-26T15:07:58.851Z,30.13
2018-01-26T15:10:29.899Z,29.13
2018-01-26T15:13:01.219Z,33.87
2018-01-26T15:15:32.287Z,31.37
2018-01-26T15:18:03.457Z,32.00
2018-01-26T15:20:34.577Z,33.60
2018-01-26T15:23:05.845Z,34.10
2018-01-26T15:25:37.056Z,31.80
2018-01-26T15:28:08.272Z,32.83
2018-01-26T15:30:39.395Z,32.30
2018-01-26T15:33:10.450Z,29.20
2018-01-26T15:35:41.611Z,30.97
2018-01-26T15:38:12.728Z,32.33
2018-01-26T15:40:43.869Z,31.70
2018-01-26T15:43:16.203Z,36.85
2018-01-26T15:45:47.351Z,33.83
2018-01-26T15:48:18.468Z,33.20
2018-01-26T15:50:49.562Z,31.33
2018-01-26T15:53:20.655Z,34.80
2018-01-26T15:55:51.819Z,32.33
2018-01-26T15:58:22.908Z,34.63
2018-01-26T16:00:54.791Z,37.00
2018-01-26T16:03:25.843Z,31.07
2018-01-26T16:05:57.006Z,33.97
2018-01-26T16:08:28.131Z,33.87
2018-01-26T16:10:59.274Z,31.17
2018-01-26T16:13:30.378Z,32.97
2018-01-26T16:16:03.537Z,33.80
2018-01-26T16:18:34.612Z,35.65
2018-01-26T16:21:05.744Z,33.40
2018-01-26T16:23:36.917Z,33.80
2018-01-26T16:26:08.257Z,36.70
2018-01-26T16:28:39.367Z,35.57
2018-01-26T16:31:10.501Z,30.10
2018-01-26T16:33:41.568Z,32.17
2018-01-26T16:36:12.745Z,31.87
2018-01-26T16:38:43.808Z,39.47
2018-01-26T16:41:14.958Z,33.93
2018-01-26T16:43:46.033Z,35.30
2018-01-26T16:46:17.191Z,34.57
2018-01-26T16:48:48.287Z,34.47
2018-01-26T16:51:19.560Z,36.33
2018-01-26T16:53:50.631Z,37.77
2018-01-26T16:56:21.757Z,36.27
2018-01-26T16:58:52.847Z,33.37
2018-01-26T17:01:23.952Z,35.40
2018-01-26T17:03:55.024Z,32.13
2018-01-26T17:06:26.126Z,36.43
2018-01-26T17:08:57.195Z,37.03
2018-01-26T17:11:28.322Z,39.33
2018-01-26T17:13:59.368Z,40.57
2018-01-26T17:16:30.432Z,35.77
2018-01-26T17:19:01.530Z,35.67
2018-01-26T17:21:32.627Z,41.60
2018-01-26T17:24:03.729Z,38.57
2018-01-26T17:26:34.825Z,36.60
2018-01-26T17:29:05.948Z,38.13
2018-01-26T17:31:37.024Z,37.47
2018-01-26T17:34:08.097Z,36.80
2018-01-26T17:36:40.372Z,39.47
2018-01-26T17:39:11.524Z,38.17
2018-01-26T17:41:42.587Z,41.57
2018-01-26T17:44:13.907Z,36.03
2018-01-26T17:46:45.094Z,39.90
2018-01-26T17:49:16.208Z,38.47
2018-01-26T17:51:47.286Z,38.50
2018-01-26T17:54:18.362Z,39.80
2018-01-26T17:56:50.422Z,40.27
2018-01-26T17:59:21.569Z,44.47
2018-01-26T18:01:52.649Z,41.13
2018-01-26T18:04:23.792Z,42.27
2018-01-26T18:06:54.873Z,48.23
2018-01-26T18:09:25.978Z,50.57
2018-01-26T18:11:57.074Z,50.83
2018-01-26T18:14:28.205Z,53.77
2018-01-26T18:17:00.064Z,61.10
2018-01-26T18:19:31.241Z,53.27
2018-01-26T18:22:02.362Z,50.50
2018-01-26T18:24:33.455Z,52.17
2018-01-26T18:27:04.582Z,50.93
2018-01-26T18:29:35.688Z,51.93
2018-01-26T18:32:07.628Z,51.47
2018-01-26T18:34:38.742Z,51.20
2018-01-26T18:37:09.850Z,49.97
2018-01-26T18:39:41.068Z,54.33
2018-01-26T18:42:12.183Z,53.60
2018-01-26T18:44:43.291Z,55.77
2018-01-26T18:47:15.151Z,55.17
2018-01-26T18:49:46.259Z,61.27
2018-01-26T18:52:17.328Z,52.90
2018-01-26T18:54:48.450Z,58.20
2018-01-26T18:57:19.553Z,55.53
2018-01-26T18:59:50.657Z,52.20
2018-01-26T19:02:21.754Z,53.23
2018-01-26T19:04:52.857Z,51.27
2018-01-26T19:07:23.913Z,51.23
2018-01-26T19:09:55.000Z,51.77
2018-01-26T19:12:26.069Z,53.53
2018-01-26T19:14:57.334Z,54.07
2018-01-26T19:20:01.206Z,52.50
2018-01-26T19:22:32.285Z,52.73
2018-01-26T19:25:03.408Z,53.10
2018-01-26T19:27:34.521Z,51.50
2018-01-26T19:30:05.643Z,51.40
2018-01-26T19:32:36.742Z,53.30
2018-01-26T19:35:07.840Z,55.27
2018-01-26T19:37:38.936Z,54.97
2018-01-26T19:40:10.039Z,50.70
2018-01-26T19:42:41.103Z,48.50
2018-01-26T19:45:12.162Z,47.27
2018-01-26T19:47:43.230Z,52.80
2018-01-26T19:50:14.289Z,52.20
2018-01-26T19:52:45.967Z,50.93
2018-01-26T19:55:17.068Z,53.37
2018-01-26T19:57:48.159Z,54.93
2018-01-26T20:00:19.297Z,52.83
2018-01-26T20:02:50.417Z,55.20
2018-01-26T20:05:40.238Z,54.63
2018-01-26T20:08:26.610Z,54.17
2018-01-26T20:10:57.694Z,55.90
2018-01-26T20:13:28.813Z,51.70
2018-01-26T20:15:59.891Z,52.90
2018-01-26T20:18:30.995Z,51.17
2018-01-26T20:21:02.078Z,57.13
2018-01-26T20:23:33.176Z,52.77
2018-01-26T20:26:04.321Z,49.37
2018-01-26T20:28:35.385Z,49.97
2018-01-26T20:31:06.469Z,54.23
2018-01-26T20:33:37.594Z,52.73
2018-01-26T20:36:08.703Z,55.67
2018-01-26T20:38:40.387Z,54.00
2018-01-26T20:41:11.438Z,52.80
2018-01-26T20:43:42.539Z,54.17
2018-01-26T20:46:16.286Z,53.40
2018-01-26T20:48:47.420Z,58.13
2018-01-26T20:51:18.523Z,53.87
2018-01-26T20:53:49.593Z,55.87
2018-01-26T20:56:20.713Z,55.73
2018-01-26T20:58:51.758Z,54.33
2018-01-26T21:01:22.851Z,51.73
2018-01-26T21:03:53.890Z,51.00
2018-01-26T21:06:24.964Z,50.97
2018-01-26T21:08:56.041Z,50.33
2018-01-26T21:11:27.166Z,49.33
2018-01-26T21:13:58.220Z,44.77
2018-01-26T21:16:29.321Z,50.00
2018-01-26T21:19:00.412Z,50.73
2018-01-26T21:21:31.528Z,46.30
2018-01-26T21:24:02.634Z,51.27
2018-01-26T21:26:40.722Z,49.37
2018-01-26T21:29:11.846Z,51.57
2018-01-26T21:31:42.929Z,49.27
2018-01-26T21:34:14.062Z,49.50
2018-01-26T21:36:45.127Z,46.30
2018-01-26T21:39:16.184Z,45.03
2018-01-26T21:41:48.192Z,47.90
2018-01-26T21:44:19.268Z,49.50
2018-01-26T21:46:50.394Z,52.47
2018-01-26T21:49:21.449Z,51.77
2018-01-26T21:51:52.560Z,45.37
2018-01-26T21:54:23.651Z,45.70
2018-01-26T21:56:54.835Z,37.33
2018-01-26T21:59:25.899Z,46.97
2018-01-26T22:01:57.046Z,41.97
2018-01-26T22:04:34.052Z,46.97
2018-01-26T22:07:11.273Z,43.23
2018-01-26T22:09:42.346Z,44.90
2018-01-26T22:12:13.412Z,42.97
2018-01-26T22:14:44.568Z,43.23
2018-01-26T22:17:15.661Z,47.67
2018-01-26T22:19:46.761Z,43.17
2018-01-26T22:22:17.977Z,45.07
2018-01-26T22:24:49.034Z,45.87
2018-01-26T22:27:20.142Z,50.17
2018-01-26T22:29:51.215Z,50.50
2018-01-26T22:32:22.285Z,48.83
2018-01-26T22:34:53.347Z,51.03
2018-01-26T22:37:24.431Z,55.90
2018-01-26T22:39:55.516Z,50.73
2018-01-26T22:42:26.579Z,49.20
2018-01-26T22:44:57.647Z,44.73
2018-01-26T22:47:28.729Z,47.17
2018-01-26T22:49:59.814Z,47.97
2018-01-26T22:52:30.919Z,44.93
2018-01-26T22:55:01.986Z,46.43
2018-01-26T22:57:33.125Z,45.17
2018-01-26T23:00:04.234Z,48.90
2018-01-26T23:02:35.299Z,48.90
2018-01-26T23:05:06.462Z,45.93
2018-01-26T23:07:37.602Z,45.60
2018-01-26T23:10:08.711Z,45.63
2018-01-26T23:12:39.743Z,43.20
2018-01-26T23:15:10.789Z,42.77
2018-01-26T23:17:41.864Z,42.10
2018-01-26T23:20:12.959Z,41.77
2018-01-26T23:22:44.093Z,38.43
2018-01-26T23:25:15.122Z,36.37
2018-01-26T23:27:46.177Z,40.00
2018-01-26T23:30:17.227Z,34.87
2018-01-26T23:32:48.341Z,34.10
2018-01-26T23:35:19.400Z,32.67
2018-01-26T23:37:50.480Z,33.73
2018-01-26T23:40:21.586Z,35.73
2018-01-26T23:42:52.704Z,34.63
2018-01-26T23:45:23.785Z,33.63
2018-01-26T23:47:54.872Z,36.73
2018-01-26T23:50:25.919Z,33.07
2018-01-26T23:52:57.008Z,31.57
2018-01-26T23:55:28.058Z,32.70
2018-01-26T23:58:00.294Z,32.03
